createdAt,value
2023-01-13T00:01:29.343Z,97796.75
2023-01-13T00:03:57.447Z,97799.34
2023-01-13T00:06:29.710Z,97788.91
2023-01-13T00:08:56.958Z,97799.25
2023-01-13T00:11:24.681Z,97789.47
2023-01-13T00:13:51.968Z,97799.22
2023-01-13T00:16:20.126Z,97790.69
2023-01-13T00:18:48.449Z,97784.63
2023-01-13T00:21:19.562Z,97782.78
2023-01-13T00:23:47.644Z,97781.03
2023-01-13T00:26:18.452Z,97788.63
2023-01-13T00:28:45.568Z,97784.63
2023-01-13T00:31:16.337Z,97788.28
2023-01-13T00:33:44.041Z,97778.50
2023-01-13T00:36:16.126Z,97780.69
2023-01-13T00:38:44.139Z,97780.56
2023-01-13T00:41:16.386Z,97777.16
2023-01-13T00:43:44.280Z,97771.97
2023-01-13T00:46:14.347Z,97772.66
2023-01-13T00:48:41.339Z,97777.91
2023-01-13T00:51:13.329Z,97774.50
2023-01-13T00:53:43.643Z,97768.31
2023-01-13T00:56:34.046Z,97768.63
2023-01-13T00:59:06.008Z,97767.03
2023-01-13T01:01:33.519Z,97773.66
2023-01-13T01:04:00.444Z,97761.78
2023-01-13T01:06:28.521Z,97765.25
2023-01-13T01:08:56.125Z,97769.31
2023-01-13T01:11:29.242Z,97774.25
2023-01-13T01:13:58.532Z,97766.53
2023-01-13T01:16:28.629Z,97770.31
2023-01-13T01:18:56.528Z,97766.88
2023-01-13T01:21:25.914Z,97763.28
2023-01-13T01:23:53.895Z,97775.31
2023-01-13T01:26:25.887Z,97778.66
2023-01-13T01:28:53.964Z,97774.91
2023-01-13T01:31:27.618Z,97786.09
2023-01-13T01:33:55.887Z,97778.41
2023-01-13T01:36:26.307Z,97775.22
2023-01-13T01:38:58.058Z,97768.69
2023-01-13T01:41:28.287Z,97758.16
2023-01-13T01:44:10.716Z,97748.38
2023-01-13T01:46:42.827Z,97748.72
2023-01-13T01:49:43.164Z,97741.56
2023-01-13T01:52:19.971Z,97745.66
2023-01-13T01:54:58.924Z,97748.19
2023-01-13T01:57:53.403Z,97751.03
2023-01-13T02:00:20.922Z,97738.00
2023-01-13T02:02:50.604Z,97735.66
2023-01-13T02:05:18.123Z,97731.81
2023-01-13T02:07:49.564Z,97730.72
2023-01-13T02:10:20.845Z,97719.44
2023-01-13T02:12:49.966Z,97724.16
2023-01-13T02:15:21.325Z,97722.44
2023-01-13T02:18:15.970Z,97720.63
2023-01-13T02:20:55.010Z,97713.44
2023-01-13T02:23:59.491Z,97721.56
2023-01-13T02:26:51.162Z,97710.03
2023-01-13T02:29:57.085Z,97695.41
2023-01-13T02:32:34.682Z,97696.88
2023-01-13T02:35:07.772Z,97693.13
2023-01-13T02:37:39.729Z,97696.38
2023-01-13T02:40:10.534Z,97688.97
2023-01-13T02:43:04.133Z,97693.22
2023-01-13T02:45:44.381Z,97681.50
2023-01-13T02:48:14.364Z,97675.13
2023-01-13T02:51:07.723Z,97668.22
2023-01-13T02:53:40.937Z,97669.81
2023-01-13T02:56:13.885Z,97672.16
2023-01-13T02:58:43.582Z,97679.75
2023-01-13T03:01:10.706Z,97678.97
2023-01-13T03:03:38.045Z,97681.56
2023-01-13T03:06:25.975Z,97668.53
2023-01-13T03:09:06.383Z,97670.13
2023-01-13T03:11:50.605Z,97668.09
2023-01-13T03:14:55.487Z,97654.56
2023-01-13T03:17:40.208Z,97666.44
2023-01-13T03:20:16.846Z,97652.81
2023-01-13T03:23:14.605Z,97656.06
2023-01-13T03:25:51.004Z,97663.16
2023-01-13T03:28:29.013Z,97650.88
2023-01-13T03:31:08.285Z,97655.06
2023-01-13T03:33:45.975Z,97669.19
2023-01-13T03:36:18.121Z,97674.78
2023-01-13T03:38:51.724Z,97680.16
2023-01-13T03:41:25.724Z,97667.78
2023-01-13T03:44:19.246Z,97674.56
2023-01-13T03:47:09.489Z,97674.38
2023-01-13T03:49:55.565Z,97664.59
2023-01-13T03:52:28.534Z,97669.28
2023-01-13T03:55:04.452Z,97660.84
2023-01-13T03:57:37.688Z,97645.72
2023-01-13T04:00:09.729Z,97645.63
2023-01-13T04:02:59.412Z,97645.38
2023-01-13T04:05:28.720Z,97635.31
2023-01-13T04:08:05.877Z,97647.16
2023-01-13T04:10:41.192Z,97645.69
2023-01-13T04:13:16.688Z,97653.03
2023-01-13T04:15:46.184Z,97651.94
2023-01-13T04:18:30.609Z,97662.41
2023-01-13T04:21:00.210Z,97654.38
2023-01-13T04:23:28.259Z,97654.56
2023-01-13T04:25:56.126Z,97644.56
2023-01-13T04:28:23.486Z,97646.22
2023-01-13T04:30:50.898Z,97630.66
2023-01-13T04:33:20.444Z,97622.44
2023-01-13T04:35:49.886Z,97618.81
2023-01-13T04:38:19.651Z,97618.78
2023-01-13T04:40:46.767Z,97624.16
2023-01-13T04:43:15.919Z,97624.06
2023-01-13T04:45:44.121Z,97628.50
2023-01-13T04:48:11.649Z,97630.38
2023-01-13T04:50:39.715Z,97624.25
2023-01-13T04:53:07.369Z,97626.91
2023-01-13T04:55:36.557Z,97629.25
2023-01-13T04:58:10.240Z,97628.41
2023-01-13T05:00:39.261Z,97628.50
2023-01-13T05:03:14.329Z,97637.78
2023-01-13T05:05:44.123Z,97635.03
2023-01-13T05:08:13.652Z,97637.56
2023-01-13T05:10:41.368Z,97625.78
2023-01-13T05:13:29.404Z,97641.66
2023-01-13T05:16:21.469Z,97658.63
2023-01-13T05:18:49.863Z,97653.34
2023-01-13T05:21:35.683Z,97628.50
2023-01-13T05:24:21.485Z,97626.06
2023-01-13T05:26:48.685Z,97620.72
2023-01-13T05:29:15.802Z,97614.28
2023-01-13T05:31:43.408Z,97619.25
2023-01-13T05:34:10.911Z,97633.59
2023-01-13T05:36:37.967Z,97641.47
2023-01-13T05:39:05.502Z,97621.78
2023-01-13T05:41:51.734Z,97615.09
2023-01-13T05:44:19.253Z,97636.16
2023-01-13T05:46:46.579Z,97627.50
2023-01-13T05:49:13.892Z,97647.88
2023-01-13T05:51:40.940Z,97640.78
2023-01-13T05:54:08.043Z,97633.06
2023-01-13T05:56:35.449Z,97613.53
2023-01-13T05:59:02.944Z,97619.59
2023-01-13T06:01:29.943Z,97622.13
2023-01-13T06:03:57.644Z,97613.66
2023-01-13T06:06:24.689Z,97610.44
2023-01-13T06:08:52.207Z,97614.28
2023-01-13T06:11:19.564Z,97621.78
2023-01-13T06:13:47.003Z,97623.78
2023-01-13T06:16:14.187Z,97612.66
2023-01-13T06:18:41.641Z,97621.28
2023-01-13T06:21:08.925Z,97617.00
2023-01-13T06:23:38.884Z,97614.59
2023-01-13T06:26:14.766Z,97622.31
2023-01-13T06:28:42.458Z,97622.47
2023-01-13T06:31:10.976Z,97626.75
2023-01-13T06:33:44.048Z,97618.34
2023-01-13T06:36:19.739Z,97622.06
2023-01-13T06:38:50.303Z,97623.66
2023-01-13T06:41:39.567Z,97628.44
2023-01-13T06:44:07.511Z,97619.50
2023-01-13T06:46:36.080Z,97638.47
2023-01-13T06:49:04.216Z,97637.44
2023-01-13T06:51:31.509Z,97644.06
2023-01-13T06:53:58.606Z,97643.72
2023-01-13T06:56:25.905Z,97649.66
2023-01-13T06:58:53.085Z,97648.53
2023-01-13T07:01:20.525Z,97641.34
2023-01-13T07:03:47.883Z,97637.34
2023-01-13T07:06:15.085Z,97644.00
2023-01-13T07:08:42.855Z,97640.66
2023-01-13T07:11:09.804Z,97640.09
2023-01-13T07:13:55.672Z,97643.00
2023-01-13T07:16:24.618Z,97650.22
2023-01-13T07:18:51.807Z,97640.66
2023-01-13T07:21:21.019Z,97635.97
2023-01-13T07:23:49.076Z,97631.34
2023-01-13T07:26:17.084Z,97627.41
2023-01-13T07:28:48.922Z,97640.22
2023-01-13T07:31:18.596Z,97630.22
2023-01-13T07:33:46.457Z,97638.75
2023-01-13T07:36:16.070Z,97647.44
2023-01-13T07:38:47.093Z,97646.47
2023-01-13T07:41:34.042Z,97646.91
2023-01-13T07:44:05.202Z,97657.63
2023-01-13T07:46:33.988Z,97635.59
2023-01-13T07:49:01.203Z,97638.06
2023-01-13T07:51:29.643Z,97647.28
2023-01-13T07:53:57.479Z,97647.09
2023-01-13T07:56:25.165Z,97649.25
2023-01-13T07:58:53.201Z,97645.53
2023-01-13T08:01:20.804Z,97655.47
2023-01-13T08:03:47.972Z,97646.47
2023-01-13T08:06:15.491Z,97643.13
2023-01-13T08:08:45.087Z,97640.78
2023-01-13T08:11:12.378Z,97637.44
2023-01-13T08:13:39.571Z,97630.31
2023-01-13T08:16:09.732Z,97631.81
2023-01-13T08:18:38.532Z,97643.78
2023-01-13T08:21:08.702Z,97642.19
2023-01-13T08:23:36.374Z,97642.00
2023-01-13T08:26:08.764Z,97642.56
2023-01-13T08:28:35.810Z,97640.91
2023-01-13T08:31:05.553Z,97640.16
2023-01-13T08:33:33.734Z,97640.69
2023-01-13T08:36:05.643Z,97651.91
2023-01-13T08:38:34.776Z,97646.25
2023-01-13T08:41:08.872Z,97635.56
2023-01-13T08:43:36.047Z,97633.53
2023-01-13T08:46:07.203Z,97627.75
2023-01-13T08:48:34.586Z,97621.97
2023-01-13T08:51:07.891Z,97629.31
2023-01-13T08:53:35.164Z,97638.75
2023-01-13T08:56:02.861Z,97647.31
2023-01-13T08:58:30.134Z,97631.47
2023-01-13T09:00:57.421Z,97622.97
2023-01-13T09:03:24.763Z,97624.09
2023-01-13T09:05:52.049Z,97632.50
2023-01-13T09:08:19.651Z,97632.84
2023-01-13T09:10:47.165Z,97620.94
2023-01-13T09:13:15.749Z,97626.56
2023-01-13T09:15:45.693Z,97627.25
2023-01-13T09:18:13.648Z,97625.69
2023-01-13T09:20:40.927Z,97621.09
2023-01-13T09:23:10.624Z,97625.06
2023-01-13T09:25:39.753Z,97632.50
2023-01-13T09:28:08.913Z,97625.88
2023-01-13T09:30:38.137Z,97617.56
2023-01-13T09:33:23.836Z,97604.66
2023-01-13T09:35:51.092Z,97611.72
2023-01-13T09:38:20.048Z,97607.13
2023-01-13T09:40:49.569Z,97598.69
2023-01-13T09:43:53.845Z,97607.03
2023-01-13T09:46:48.195Z,97597.16
2023-01-13T09:49:23.039Z,97592.66
2023-01-13T09:52:04.205Z,97583.09
2023-01-13T09:54:38.849Z,97580.47
2023-01-13T09:57:14.610Z,97568.47
2023-01-13T09:59:42.764Z,97564.78
2023-01-13T10:02:48.285Z,97561.81
2023-01-13T10:05:20.842Z,97560.75
2023-01-13T10:07:53.571Z,97558.25
2023-01-13T10:10:49.177Z,97545.16
2023-01-13T10:13:24.646Z,97545.16
2023-01-13T10:16:13.162Z,97541.13
2023-01-13T10:19:05.850Z,97539.00
2023-01-13T10:21:39.495Z,97543.72
2023-01-13T10:24:10.606Z,97534.34
2023-01-13T10:26:53.725Z,97533.03
2023-01-13T10:29:26.218Z,97533.88
2023-01-13T10:31:57.829Z,97517.22
2023-01-13T10:34:26.290Z,97517.59
2023-01-13T10:37:09.727Z,97522.09
2023-01-13T10:39:46.449Z,97510.78
2023-01-13T10:42:22.348Z,97512.22
2023-01-13T10:44:52.372Z,97508.78
2023-01-13T10:47:31.636Z,97500.09
2023-01-13T10:50:11.407Z,97500.56
2023-01-13T10:52:43.262Z,97500.66
2023-01-13T10:55:27.636Z,97510.53
2023-01-13T10:57:54.931Z,97505.22
2023-01-13T11:00:49.644Z,97509.94
2023-01-13T11:03:18.926Z,97500.38
2023-01-13T11:06:04.768Z,97491.50
2023-01-13T11:08:45.394Z,97488.22
2023-01-13T11:11:42.855Z,97476.63
2023-01-13T11:14:46.621Z,97478.78
2023-01-13T11:17:33.622Z,97473.75
2023-01-13T11:20:14.207Z,97476.91
2023-01-13T11:22:52.345Z,97468.81
2023-01-13T11:25:44.941Z,97480.69
2023-01-13T11:28:48.271Z,97472.13
2023-01-13T11:31:20.269Z,97473.19
2023-01-13T11:33:55.331Z,97466.06
2023-01-13T11:36:31.676Z,97460.44
2023-01-13T11:39:27.174Z,97461.75
2023-01-13T11:42:19.327Z,97452.28
2023-01-13T11:45:19.891Z,97446.91
2023-01-13T11:47:51.530Z,97442.84
2023-01-13T11:50:54.327Z,97452.81
2023-01-13T11:53:49.845Z,97446.66
2023-01-13T11:56:39.096Z,97439.09
2023-01-13T11:59:37.399Z,97434.72
2023-01-13T12:02:04.687Z,97435.22
2023-01-13T12:04:49.299Z,97437.19
2023-01-13T12:07:25.932Z,97424.72
2023-01-13T12:10:29.298Z,97429.22
2023-01-13T12:13:09.951Z,97420.91
2023-01-13T12:16:01.636Z,97415.59
2023-01-13T12:18:48.285Z,97413.00
2023-01-13T12:21:25.927Z,97410.41
2023-01-13T12:24:05.167Z,97405.31
2023-01-13T12:26:39.391Z,97395.03
2023-01-13T12:29:14.584Z,97397.53
2023-01-13T12:31:44.390Z,97391.28
2023-01-13T12:34:37.455Z,97386.84
2023-01-13T12:37:10.841Z,97379.28
2023-01-13T12:40:22.331Z,97382.94
2023-01-13T12:43:26.914Z,97385.69
2023-01-13T12:45:54.032Z,97381.53
2023-01-13T12:49:00.244Z,97378.84
2023-01-13T12:51:38.483Z,97375.72
2023-01-13T12:54:38.086Z,97375.78
2023-01-13T12:57:24.967Z,97375.50
2023-01-13T13:00:16.565Z,97384.50
2023-01-13T13:03:06.157Z,97378.56
2023-01-13T13:05:59.510Z,97386.94
2023-01-13T13:08:43.048Z,97395.22
2023-01-13T13:11:49.882Z,97392.31
2023-01-13T13:14:37.918Z,97395.31
2023-01-13T13:17:11.773Z,97397.53
2023-01-13T13:19:39.349Z,97396.63
2023-01-13T13:22:12.486Z,97397.84
2023-01-13T13:24:42.405Z,97398.66
2023-01-13T13:27:45.216Z,97399.19
2023-01-13T13:30:49.358Z,97398.06
2023-01-13T13:33:32.164Z,97414.63
2023-01-13T13:36:40.248Z,97416.81
2023-01-13T13:39:47.448Z,97427.19
2023-01-13T13:42:36.568Z,97433.66
2023-01-13T13:45:34.966Z,97432.91
2023-01-13T13:48:39.639Z,97443.41
2023-01-13T13:51:49.623Z,97428.66
2023-01-13T13:54:21.396Z,97445.03
2023-01-13T13:56:51.043Z,97438.38
2023-01-13T13:59:27.241Z,97438.91
2023-01-13T14:02:06.488Z,97428.69
2023-01-13T14:04:37.117Z,97435.00
2023-01-13T14:07:21.096Z,97428.63
2023-01-13T14:09:52.930Z,97430.69
2023-01-13T14:12:26.138Z,97433.56
2023-01-13T14:14:57.720Z,97435.72
2023-01-13T14:17:28.062Z,97437.19
2023-01-13T14:20:06.363Z,97438.63
2023-01-13T14:22:35.217Z,97432.34
2023-01-13T14:25:03.892Z,97430.00
2023-01-13T14:27:32.296Z,97425.16
2023-01-13T14:30:01.878Z,97426.53
2023-01-13T14:32:36.749Z,97426.78
2023-01-13T14:35:07.805Z,97431.47
2023-01-13T14:37:41.026Z,97436.16
2023-01-13T14:40:33.890Z,97436.47
2023-01-13T14:43:03.989Z,97439.72
2023-01-13T14:45:33.533Z,97440.44
2023-01-13T14:48:02.812Z,97445.09
2023-01-13T14:50:34.424Z,97447.34
2023-01-13T14:53:02.753Z,97427.78
2023-01-13T14:55:41.609Z,97419.88
2023-01-13T14:58:26.417Z,97422.38
2023-01-13T15:01:27.072Z,97430.22
2023-01-13T15:03:54.738Z,97440.16
2023-01-13T15:06:27.151Z,97452.66
2023-01-13T15:08:54.673Z,97457.50
2023-01-13T15:11:28.879Z,97448.75
2023-01-13T15:14:04.566Z,97452.41
2023-01-13T15:16:34.717Z,97455.41
2023-01-13T15:19:03.604Z,97458.72
2023-01-13T15:21:32.098Z,97466.38
2023-01-13T15:24:02.749Z,97472.31
2023-01-13T15:26:33.446Z,97458.53
2023-01-13T15:29:01.435Z,97464.84
2023-01-13T15:31:29.272Z,97457.16
2023-01-13T15:33:59.046Z,97462.50
2023-01-13T15:36:32.344Z,97462.72
2023-01-13T15:39:02.174Z,97468.91
2023-01-13T15:41:48.170Z,97470.59
2023-01-13T15:44:35.970Z,97475.31
2023-01-13T15:47:07.388Z,97467.56
2023-01-13T15:49:45.106Z,97457.94
2023-01-13T15:52:25.604Z,97469.56
2023-01-13T15:54:54.533Z,97462.69
2023-01-13T15:57:31.850Z,97462.47
2023-01-13T16:00:02.899Z,97463.41
2023-01-13T16:02:34.288Z,97467.16
2023-01-13T16:05:02.408Z,97467.66
2023-01-13T16:07:30.047Z,97454.94
2023-01-13T16:09:57.694Z,97459.56
2023-01-13T16:12:24.894Z,97458.09
2023-01-13T16:14:53.053Z,97472.22
2023-01-13T16:17:23.778Z,97474.56
2023-01-13T16:19:52.173Z,97473.22
2023-01-13T16:22:19.393Z,97480.56
2023-01-13T16:24:48.592Z,97487.19
2023-01-13T16:27:22.510Z,97500.78
2023-01-13T16:29:51.982Z,97513.81
2023-01-13T16:32:22.327Z,97515.78
2023-01-13T16:34:51.174Z,97517.56
2023-01-13T16:37:26.354Z,97521.97
2023-01-13T16:39:54.875Z,97518.00
2023-01-13T16:42:23.345Z,97520.94
2023-01-13T16:44:52.068Z,97525.56
2023-01-13T16:47:19.762Z,97522.84
2023-01-13T16:49:48.233Z,97526.94
2023-01-13T16:52:15.597Z,97532.03
2023-01-13T16:54:42.718Z,97529.53
2023-01-13T16:57:14.007Z,97539.97
2023-01-13T16:59:45.481Z,97529.38
2023-01-13T17:02:16.806Z,97540.03
2023-01-13T17:04:43.904Z,97542.84
2023-01-13T17:07:17.449Z,97543.31
2023-01-13T17:09:45.830Z,97548.94
2023-01-13T17:12:13.859Z,97550.81
2023-01-13T17:14:43.613Z,97548.53
2023-01-13T17:17:22.195Z,97547.06
2023-01-13T17:19:49.367Z,97548.13
2023-01-13T17:22:16.825Z,97551.03
2023-01-13T17:24:44.086Z,97550.53
2023-01-13T17:27:13.846Z,97550.66
2023-01-13T17:29:42.808Z,97551.50
2023-01-13T17:32:16.242Z,97554.28
2023-01-13T17:34:44.406Z,97559.72
2023-01-13T17:37:16.734Z,97552.84
2023-01-13T17:39:46.568Z,97562.72
2023-01-13T17:42:14.569Z,97566.28
2023-01-13T17:44:43.219Z,97565.34
2023-01-13T17:47:11.341Z,97554.22
2023-01-13T17:49:39.799Z,97556.09
2023-01-13T17:52:08.112Z,97561.69
2023-01-13T17:54:36.163Z,97567.66
2023-01-13T17:57:04.564Z,97569.44
2023-01-13T17:59:32.708Z,97592.13
2023-01-13T18:02:00.633Z,97593.34
2023-01-13T18:04:29.218Z,97602.94
2023-01-13T18:06:59.845Z,97600.44
2023-01-13T18:09:30.720Z,97604.59
2023-01-13T18:11:59.202Z,97605.25
2023-01-13T18:14:28.593Z,97606.81
2023-01-13T18:16:56.076Z,97601.38
2023-01-13T18:19:42.798Z,97611.59
2023-01-13T18:22:33.533Z,97613.38
2023-01-13T18:25:21.797Z,97615.53
2023-01-13T18:27:49.124Z,97620.88
2023-01-13T18:30:16.415Z,97635.84
2023-01-13T18:32:43.685Z,97625.66
2023-01-13T18:35:12.237Z,97633.84
2023-01-13T18:37:43.856Z,97643.34
2023-01-13T18:40:13.858Z,97651.47
2023-01-13T18:43:00.578Z,97646.88
2023-01-13T18:45:29.995Z,97653.19
2023-01-13T18:48:00.479Z,97642.25
2023-01-13T18:50:28.729Z,97642.25
2023-01-13T18:52:57.776Z,97639.13
2023-01-13T18:55:26.149Z,97637.66
2023-01-13T18:57:57.358Z,97633.31
2023-01-13T19:00:25.830Z,97632.16
2023-01-13T19:05:38.472Z,97646.72
2023-01-13T19:08:07.171Z,97645.22
2023-01-13T19:10:34.718Z,97664.47
2023-01-13T19:13:03.520Z,97677.56
2023-01-13T19:15:31.889Z,97669.44
2023-01-13T19:18:01.350Z,97657.22
2023-01-13T19:20:29.530Z,97645.78
2023-01-13T19:22:57.316Z,97640.19
2023-01-13T19:25:25.338Z,97658.16
2023-01-13T19:27:55.828Z,97695.50
2023-01-13T19:30:25.497Z,97697.19
2023-01-13T19:32:53.044Z,97687.16
2023-01-13T19:35:20.601Z,97700.91
2023-01-13T19:37:48.559Z,97719.84
2023-01-13T19:40:16.730Z,97726.63
2023-01-13T19:43:03.986Z,97737.69
2023-01-13T19:45:36.172Z,97738.97
2023-01-13T19:48:06.724Z,97743.88
2023-01-13T19:50:43.086Z,97747.31
2023-01-13T19:53:21.061Z,97758.91
2023-01-13T19:55:50.086Z,97759.53
2023-01-13T19:58:20.223Z,97765.56
2023-01-13T20:00:56.625Z,97761.94
2023-01-13T20:03:33.326Z,97771.63
2023-01-13T20:06:12.157Z,97779.56
2023-01-13T20:08:41.551Z,97784.59
2023-01-13T20:11:31.148Z,97795.88
2023-01-13T20:13:59.521Z,97789.09
2023-01-13T20:16:33.122Z,97777.13
2023-01-13T20:19:00.174Z,97792.28
2023-01-13T20:21:28.727Z,97791.25
2023-01-13T20:23:59.164Z,97792.41
2023-01-13T20:26:27.225Z,97792.34
2023-01-13T20:28:54.484Z,97788.19
2023-01-13T20:31:21.988Z,97796.38
2023-01-13T20:33:50.948Z,97796.38
2023-01-13T20:36:32.311Z,97806.78
2023-01-13T20:39:01.984Z,97802.88
2023-01-13T20:41:48.563Z,97794.16
2023-01-13T20:44:16.251Z,97801.84
2023-01-13T20:46:45.090Z,97799.34
2023-01-13T20:49:15.213Z,97800.28
2023-01-13T20:51:47.317Z,97796.38
2023-01-13T20:54:16.417Z,97795.75
2023-01-13T20:56:44.962Z,97792.75
2023-01-13T20:59:13.361Z,97788.22
2023-01-13T21:01:40.690Z,97796.97
2023-01-13T21:04:08.751Z,97795.06
2023-01-13T21:06:36.485Z,97802.88
2023-01-13T21:09:04.162Z,97800.44
2023-01-13T21:11:49.855Z,97803.75
2023-01-13T21:14:39.364Z,97791.09
2023-01-13T21:17:08.641Z,97803.19
2023-01-13T21:19:35.778Z,97800.84
2023-01-13T21:22:04.403Z,97804.22
2023-01-13T21:24:31.976Z,97793.09
2023-01-13T21:27:00.167Z,97796.53
2023-01-13T21:29:29.682Z,97807.03
2023-01-13T21:31:57.651Z,97818.34
2023-01-13T21:34:24.964Z,97827.66
2023-01-13T21:36:52.082Z,97832.22
2023-01-13T21:39:19.191Z,97828.97
2023-01-13T21:42:04.885Z,97820.31
2023-01-13T21:44:50.674Z,97820.59
2023-01-13T21:47:39.924Z,97824.13
2023-01-13T21:50:13.376Z,97823.22
2023-01-13T21:52:44.003Z,97826.09
2023-01-13T21:55:25.047Z,97820.22
2023-01-13T21:58:10.423Z,97828.03
2023-01-13T22:00:38.857Z,97826.66
2023-01-13T22:03:08.173Z,97837.53
2023-01-13T22:05:37.525Z,97836.38
2023-01-13T22:08:05.617Z,97844.47
2023-01-13T22:10:34.225Z,97844.56
2023-01-13T22:13:23.691Z,97846.50
2023-01-13T22:15:52.167Z,97861.47
2023-01-13T22:18:20.244Z,97854.56
2023-01-13T22:20:49.364Z,97862.75
2023-01-13T22:23:16.907Z,97860.50
2023-01-13T22:25:44.487Z,97861.06
2023-01-13T22:28:14.552Z,97871.78
2023-01-13T22:30:41.819Z,97875.50
2023-01-13T22:33:09.045Z,97884.00
2023-01-13T22:35:36.327Z,97881.75
2023-01-13T22:38:03.508Z,97874.38
2023-01-13T22:40:30.723Z,97878.75
2023-01-13T22:42:58.006Z,97870.00
2023-01-13T22:45:25.153Z,97877.03
2023-01-13T22:47:52.652Z,97882.88
2023-01-13T22:50:21.185Z,97878.25
2023-01-13T22:52:48.882Z,97876.34
2023-01-13T22:55:16.056Z,97880.59
2023-01-13T22:57:48.239Z,97894.91
2023-01-13T23:00:19.346Z,97896.34
2023-01-13T23:02:47.205Z,97901.88
2023-01-13T23:05:14.323Z,97899.03
2023-01-13T23:07:41.675Z,97900.34
2023-01-13T23:10:09.203Z,97891.66
2023-01-13T23:12:36.182Z,97900.22
2023-01-13T23:15:04.251Z,97890.56
2023-01-13T23:17:31.446Z,97893.06
2023-01-13T23:19:58.803Z,97897.34
2023-01-13T23:22:25.848Z,97896.66
2023-01-13T23:24:53.206Z,97893.44
2023-01-13T23:27:20.490Z,97893.84
2023-01-13T23:29:48.095Z,97906.59
2023-01-13T23:32:15.290Z,97917.97
2023-01-13T23:34:42.557Z,97918.47
2023-01-13T23:37:09.527Z,97918.41
2023-01-13T23:39:37.034Z,97917.22
2023-01-13T23:42:04.517Z,97916.47
2023-01-13T23:44:31.601Z,97918.91
2023-01-13T23:46:58.964Z,97915.38
2023-01-13T23:49:26.005Z,97917.47
2023-01-13T23:51:53.291Z,97923.97
2023-01-13T23:54:20.484Z,97932.84
2023-01-13T23:56:50.489Z,97932.31
2023-01-13T23:59:18.784Z,97938.81
